createdAt,value
2023-05-20T00:02:15.034Z,102205.00
2023-05-20T00:04:42.249Z,102208.00
2023-05-20T00:07:09.376Z,102208.00
2023-05-20T00:09:38.003Z,102201.00
2023-05-20T00:12:05.426Z,102202.00
2023-05-20T00:14:32.241Z,102205.00
2023-05-20T00:16:59.102Z,102199.00
2023-05-20T00:19:25.924Z,102204.00
2023-05-20T00:21:52.719Z,102193.00
2023-05-20T00:24:19.490Z,102204.00
2023-05-20T00:26:46.294Z,102193.00
2023-05-20T00:29:13.086Z,102200.00
2023-05-20T00:31:39.878Z,102202.00
2023-05-20T00:34:06.704Z,102202.00
2023-05-20T00:36:33.672Z,102192.00
2023-05-20T00:39:00.486Z,102198.00
2023-05-20T00:41:27.561Z,102207.00
2023-05-20T00:43:55.402Z,102201.00
2023-05-20T00:46:24.296Z,102206.00
2023-05-20T00:48:51.805Z,102204.00
2023-05-20T00:51:20.439Z,102199.00
2023-05-20T00:53:47.554Z,102203.00
2023-05-20T00:56:15.336Z,102200.00
2023-05-20T00:58:42.337Z,102207.00
2023-05-20T01:01:09.246Z,102197.00
2023-05-20T01:03:36.222Z,102198.00
2023-05-20T01:06:03.416Z,102198.00
2023-05-20T01:08:30.488Z,102186.00
2023-05-20T01:11:11.191Z,102180.00
2023-05-20T01:13:51.528Z,102185.00
2023-05-20T01:16:23.310Z,102186.00
2023-05-20T01:18:55.166Z,102182.00
2023-05-20T01:21:22.688Z,102179.00
2023-05-20T01:23:49.901Z,102179.00
2023-05-20T01:26:18.716Z,102179.00
2023-05-20T01:28:45.581Z,102166.00
2023-05-20T01:31:23.769Z,102171.00
2023-05-20T01:33:58.295Z,102176.00
2023-05-20T01:36:27.798Z,102174.00
2023-05-20T01:38:56.242Z,102167.00
2023-05-20T01:41:26.605Z,102169.00
2023-05-20T01:43:55.116Z,102168.00
2023-05-20T01:46:22.067Z,102165.00
2023-05-20T01:48:48.917Z,102159.00
2023-05-20T01:51:16.129Z,102162.00
2023-05-20T01:53:42.918Z,102149.00
2023-05-20T01:56:09.834Z,102161.00
2023-05-20T01:58:37.601Z,102162.00
2023-05-20T02:01:04.423Z,102160.00
2023-05-20T02:03:31.253Z,102155.00
2023-05-20T02:05:58.105Z,102157.00
2023-05-20T02:08:24.948Z,102158.00
2023-05-20T02:10:51.748Z,102151.00
2023-05-20T02:13:18.600Z,102159.00
2023-05-20T02:15:45.609Z,102161.00
2023-05-20T02:18:18.614Z,102158.00
2023-05-20T02:20:45.538Z,102147.00
2023-05-20T02:23:12.375Z,102147.00
2023-05-20T02:25:40.608Z,102150.00
2023-05-20T02:28:10.708Z,102165.00
2023-05-20T02:30:41.050Z,102151.00
2023-05-20T02:33:08.961Z,102145.00
2023-05-20T02:35:36.558Z,102147.00
2023-05-20T02:38:03.446Z,102151.00
2023-05-20T02:40:30.269Z,102147.00
2023-05-20T02:42:57.774Z,102154.00
2023-05-20T02:45:24.590Z,102165.00
2023-05-20T02:47:51.449Z,102156.00
2023-05-20T02:50:18.287Z,102156.00
2023-05-20T02:52:45.592Z,102152.00
2023-05-20T02:55:13.017Z,102153.00
2023-05-20T02:57:39.969Z,102164.00
2023-05-20T03:00:11.993Z,102160.00
2023-05-20T03:02:39.263Z,102163.00
2023-05-20T03:05:06.625Z,102156.00
2023-05-20T03:07:36.560Z,102163.00
2023-05-20T03:10:04.963Z,102174.00
2023-05-20T03:12:31.802Z,102169.00
2023-05-20T03:14:59.166Z,102183.00
2023-05-20T03:17:26.090Z,102176.00
2023-05-20T03:19:52.890Z,102179.00
2023-05-20T03:22:19.657Z,102184.00
2023-05-20T03:24:46.496Z,102174.00
2023-05-20T03:27:13.265Z,102182.00
2023-05-20T03:29:40.472Z,102179.00
2023-05-20T03:32:09.470Z,102172.00
2023-05-20T03:34:38.215Z,102170.00
2023-05-20T03:37:05.306Z,102178.00
2023-05-20T03:39:32.129Z,102176.00
2023-05-20T03:41:58.911Z,102174.00
2023-05-20T03:44:25.832Z,102183.00
2023-05-20T03:46:52.701Z,102185.00
2023-05-20T03:49:19.652Z,102184.00
2023-05-20T03:51:46.466Z,102180.00
2023-05-20T03:54:13.275Z,102193.00
2023-05-20T03:56:40.044Z,102190.00
2023-05-20T03:59:06.828Z,102191.00
2023-05-20T04:01:33.900Z,102192.00
2023-05-20T04:04:00.795Z,102181.00
2023-05-20T04:06:28.259Z,102189.00
2023-05-20T04:08:55.027Z,102183.00
2023-05-20T04:11:21.780Z,102189.00
2023-05-20T04:13:48.572Z,102187.00
2023-05-20T04:16:15.568Z,102175.00
2023-05-20T04:18:42.419Z,102177.00
2023-05-20T04:21:09.231Z,102170.00
2023-05-20T04:23:35.992Z,102168.00
2023-05-20T04:26:02.920Z,102174.00
2023-05-20T04:28:31.500Z,102180.00
2023-05-20T04:31:00.454Z,102182.00
2023-05-20T04:33:27.658Z,102184.00
2023-05-20T04:35:58.630Z,102179.00
2023-05-20T04:38:29.763Z,102165.00
2023-05-20T04:40:58.103Z,102174.00
2023-05-20T04:43:26.039Z,102183.00
2023-05-20T04:45:55.752Z,102180.00
2023-05-20T04:48:23.232Z,102176.00
2023-05-20T04:50:50.555Z,102182.00
2023-05-20T04:53:18.058Z,102184.00
2023-05-20T04:55:46.084Z,102187.00
2023-05-20T04:58:15.677Z,102178.00
2023-05-20T05:00:43.529Z,102178.00
2023-05-20T05:03:12.893Z,102180.00
2023-05-20T05:05:40.721Z,102173.00
2023-05-20T05:08:08.557Z,102174.00
2023-05-20T05:10:36.165Z,102178.00
2023-05-20T05:13:04.066Z,102176.00
2023-05-20T05:15:30.922Z,102178.00
2023-05-20T05:17:57.809Z,102165.00
2023-05-20T05:20:24.836Z,102176.00
2023-05-20T05:22:51.615Z,102181.00
2023-05-20T05:25:18.857Z,102173.00
2023-05-20T05:27:45.718Z,102180.00
2023-05-20T05:30:12.549Z,102181.00
2023-05-20T05:32:39.424Z,102186.00
2023-05-20T05:35:08.268Z,102180.00
2023-05-20T05:37:35.397Z,102172.00
2023-05-20T05:40:02.257Z,102172.00
2023-05-20T05:42:29.053Z,102166.00
2023-05-20T05:44:55.881Z,102166.00
2023-05-20T05:47:23.324Z,102174.00
2023-05-20T05:49:50.206Z,102165.00
2023-05-20T05:52:16.978Z,102167.00
2023-05-20T05:54:43.806Z,102166.00
2023-05-20T05:57:12.031Z,102154.00
2023-05-20T05:59:39.212Z,102155.00
2023-05-20T06:02:06.503Z,102157.00
2023-05-20T06:04:33.283Z,102158.00
2023-05-20T06:07:00.052Z,102145.00
2023-05-20T06:09:26.908Z,102150.00
2023-05-20T06:11:53.679Z,102143.00
2023-05-20T06:14:20.641Z,102157.00
2023-05-20T06:16:47.454Z,102147.00
2023-05-20T06:19:15.296Z,102145.00
2023-05-20T06:21:42.073Z,102138.00
2023-05-20T06:24:08.875Z,102142.00
2023-05-20T06:26:35.671Z,102151.00
2023-05-20T06:29:03.475Z,102148.00
2023-05-20T06:31:30.692Z,102144.00
2023-05-20T06:33:57.562Z,102155.00
2023-05-20T06:36:24.772Z,102153.00
2023-05-20T06:38:51.544Z,102160.00
2023-05-20T06:41:18.345Z,102146.00
2023-05-20T06:43:46.678Z,102144.00
2023-05-20T06:46:13.493Z,102151.00
2023-05-20T06:48:40.389Z,102152.00
2023-05-20T06:51:10.261Z,102145.00
2023-05-20T06:53:37.376Z,102151.00
2023-05-20T06:56:04.697Z,102160.00
2023-05-20T06:58:32.773Z,102150.00
2023-05-20T07:00:59.610Z,102147.00
2023-05-20T07:03:26.407Z,102152.00
2023-05-20T07:05:53.684Z,102156.00
2023-05-20T07:08:20.553Z,102149.00
2023-05-20T07:10:47.399Z,102150.00
2023-05-20T07:13:14.226Z,102147.00
2023-05-20T07:15:41.012Z,102151.00
2023-05-20T07:18:07.912Z,102147.00
2023-05-20T07:20:36.162Z,102138.00
2023-05-20T07:23:04.133Z,102151.00
2023-05-20T07:25:32.094Z,102147.00
2023-05-20T07:28:00.487Z,102147.00
2023-05-20T07:30:27.614Z,102142.00
2023-05-20T07:32:54.493Z,102141.00
2023-05-20T07:35:21.258Z,102138.00
2023-05-20T07:37:48.152Z,102130.00
2023-05-20T07:40:14.994Z,102129.00
2023-05-20T07:42:41.758Z,102116.00
2023-05-20T07:45:09.348Z,102137.00
2023-05-20T07:47:36.157Z,102137.00
2023-05-20T07:50:03.157Z,102127.00
2023-05-20T07:52:30.988Z,102128.00
2023-05-20T07:55:00.456Z,102125.00
2023-05-20T07:57:27.559Z,102108.00
2023-05-20T07:59:54.782Z,102110.00
2023-05-20T08:02:21.830Z,102103.00
2023-05-20T08:04:48.766Z,102103.00
2023-05-20T08:07:15.974Z,102095.00
2023-05-20T08:09:43.304Z,102107.00
2023-05-20T08:12:10.095Z,102112.00
2023-05-20T08:14:37.316Z,102113.00
2023-05-20T08:17:04.179Z,102105.00
2023-05-20T08:19:31.059Z,102098.00
2023-05-20T08:21:58.013Z,102105.00
2023-05-20T08:24:24.834Z,102107.00
2023-05-20T08:26:51.883Z,102108.00
2023-05-20T08:29:18.777Z,102112.00
2023-05-20T08:31:46.101Z,102102.00
2023-05-20T08:34:12.996Z,102098.00
2023-05-20T08:36:39.987Z,102089.00
2023-05-20T08:39:07.166Z,102091.00
2023-05-20T08:41:34.151Z,102092.00
2023-05-20T08:44:02.577Z,102082.00
2023-05-20T08:46:31.460Z,102095.00
2023-05-20T08:48:59.378Z,102090.00
2023-05-20T08:51:27.988Z,102087.00
2023-05-20T08:53:54.845Z,102085.00
2023-05-20T08:56:23.694Z,102089.00
2023-05-20T08:58:50.594Z,102090.00
2023-05-20T09:01:18.003Z,102088.00
2023-05-20T09:03:44.834Z,102087.00
2023-05-20T09:06:20.281Z,102081.00
2023-05-20T09:08:50.067Z,102081.00
2023-05-20T09:11:16.832Z,102084.00
2023-05-20T09:13:44.066Z,102085.00
2023-05-20T09:16:11.661Z,102078.00
2023-05-20T09:18:40.308Z,102094.00
2023-05-20T09:21:07.418Z,102080.00
2023-05-20T09:23:38.458Z,102092.00
2023-05-20T09:26:05.404Z,102087.00
2023-05-20T09:28:32.307Z,102073.00
2023-05-20T09:31:00.859Z,102077.00
2023-05-20T09:33:31.999Z,102070.00
2023-05-20T09:36:08.289Z,102081.00
2023-05-20T09:38:39.308Z,102075.00
2023-05-20T09:41:12.209Z,102073.00
2023-05-20T09:43:40.871Z,102062.00
2023-05-20T09:46:08.637Z,102070.00
2023-05-20T09:48:39.697Z,102066.00
2023-05-20T09:51:07.995Z,102087.00
2023-05-20T09:53:35.921Z,102082.00
2023-05-20T09:56:03.412Z,102073.00
2023-05-20T09:58:31.046Z,102071.00
2023-05-20T10:00:57.872Z,102067.00
2023-05-20T10:03:28.023Z,102079.00
2023-05-20T10:06:10.450Z,102074.00
2023-05-20T10:09:14.535Z,102079.00
2023-05-20T10:12:01.931Z,102081.00
2023-05-20T10:14:58.594Z,102082.00
2023-05-20T10:17:52.024Z,102076.00
2023-05-20T10:20:19.144Z,102067.00
2023-05-20T10:22:57.436Z,102069.00
2023-05-20T10:25:28.435Z,102063.00
2023-05-20T10:28:08.942Z,102067.00
2023-05-20T10:30:36.312Z,102060.00
2023-05-20T10:33:06.853Z,102073.00
2023-05-20T10:35:35.052Z,102066.00
2023-05-20T10:38:11.519Z,102054.00
2023-05-20T10:40:38.860Z,102066.00
2023-05-20T10:43:26.494Z,102056.00
2023-05-20T10:45:57.397Z,102061.00
2023-05-20T10:48:28.933Z,102045.00
2023-05-20T10:51:06.481Z,102034.00
2023-05-20T10:53:45.073Z,102035.00
2023-05-20T10:56:26.528Z,102024.00
2023-05-20T10:58:54.960Z,102030.00
2023-05-20T11:01:26.949Z,102032.00
2023-05-20T11:03:58.197Z,102032.00
2023-05-20T11:06:29.230Z,102028.00
2023-05-20T11:09:04.750Z,102021.00
2023-05-20T11:11:31.793Z,102022.00
2023-05-20T11:13:58.632Z,102013.00
2023-05-20T11:16:25.692Z,102016.00
2023-05-20T11:18:52.808Z,102019.00
2023-05-20T11:21:20.357Z,102015.00
2023-05-20T11:23:47.210Z,102018.00
2023-05-20T11:26:13.982Z,102020.00
2023-05-20T11:28:41.096Z,102007.00
2023-05-20T11:31:08.135Z,102009.00
2023-05-20T11:33:34.925Z,101999.00
2023-05-20T11:36:03.540Z,102008.00
2023-05-20T11:38:31.921Z,101998.00
2023-05-20T11:40:59.856Z,102005.00
2023-05-20T11:43:26.698Z,102000.00
2023-05-20T11:46:01.590Z,102004.00
2023-05-20T11:48:28.505Z,101997.00
2023-05-20T11:50:57.059Z,102002.00
2023-05-20T11:53:24.883Z,101995.00
2023-05-20T11:55:58.441Z,102007.00
2023-05-20T11:58:31.648Z,101994.00
2023-05-20T12:01:05.703Z,102001.00
2023-05-20T12:03:40.893Z,101997.00
2023-05-20T12:06:07.786Z,101993.00
2023-05-20T12:08:34.558Z,101988.00
2023-05-20T12:11:01.364Z,101978.00
2023-05-20T12:13:28.170Z,101979.00
2023-05-20T12:15:54.954Z,101988.00
2023-05-20T12:18:22.750Z,101970.00
2023-05-20T12:20:49.559Z,101975.00
2023-05-20T12:23:16.422Z,101970.00
2023-05-20T12:25:43.205Z,101961.00
2023-05-20T12:28:09.962Z,101969.00
2023-05-20T12:30:36.847Z,101959.00
2023-05-20T12:33:03.975Z,101954.00
2023-05-20T12:35:42.950Z,101953.00
2023-05-20T12:38:10.328Z,101947.00
2023-05-20T12:40:37.564Z,101952.00
2023-05-20T12:43:05.855Z,101935.00
2023-05-20T12:45:33.178Z,101948.00
2023-05-20T12:48:00.434Z,101941.00
2023-05-20T12:50:28.206Z,101940.00
2023-05-20T12:52:55.429Z,101941.00
2023-05-20T12:55:22.369Z,101923.00
2023-05-20T12:57:50.619Z,101939.00
2023-05-20T13:00:17.778Z,101933.00
2023-05-20T13:02:44.828Z,101924.00
2023-05-20T13:05:12.266Z,101923.00
2023-05-20T13:07:39.298Z,101916.00
2023-05-20T13:10:08.021Z,101921.00
2023-05-20T13:12:35.744Z,101913.00
2023-05-20T13:15:04.307Z,101905.00
2023-05-20T13:17:31.874Z,101901.00
2023-05-20T13:19:59.253Z,101891.00
2023-05-20T13:22:26.172Z,101891.00
2023-05-20T13:24:52.997Z,101885.00
2023-05-20T13:27:19.756Z,101894.00
2023-05-20T13:29:46.560Z,101899.00
2023-05-20T13:32:13.384Z,101885.00
2023-05-20T13:34:40.264Z,101876.00
2023-05-20T13:37:07.133Z,101890.00
2023-05-20T13:39:34.078Z,101869.00
2023-05-20T13:42:00.957Z,101863.00
2023-05-20T13:44:27.773Z,101869.00
2023-05-20T13:46:54.682Z,101865.00
2023-05-20T13:49:22.002Z,101860.00
2023-05-20T13:51:49.965Z,101861.00
2023-05-20T13:54:16.776Z,101861.00
2023-05-20T13:56:43.959Z,101865.00
2023-05-20T13:59:10.878Z,101858.00
2023-05-20T14:01:40.485Z,101853.00
2023-05-20T14:04:08.114Z,101861.00
2023-05-20T14:06:41.521Z,101852.00
2023-05-20T14:09:09.269Z,101854.00
2023-05-20T14:11:36.946Z,101854.00
2023-05-20T14:14:03.820Z,101849.00
2023-05-20T14:16:31.789Z,101846.00
2023-05-20T14:18:58.811Z,101838.00
2023-05-20T14:21:25.664Z,101827.00
2023-05-20T14:23:52.454Z,101835.00
2023-05-20T14:26:19.253Z,101840.00
2023-05-20T14:28:46.128Z,101833.00
2023-05-20T14:31:12.975Z,101830.00
2023-05-20T14:33:39.747Z,101827.00
2023-05-20T14:36:06.891Z,101831.00
2023-05-20T14:38:33.688Z,101822.00
2023-05-20T14:41:00.450Z,101828.00
2023-05-20T14:43:27.303Z,101820.00
2023-05-20T14:45:54.717Z,101823.00
2023-05-20T14:48:21.519Z,101817.00
2023-05-20T14:50:49.697Z,101814.00
2023-05-20T14:53:17.451Z,101817.00
2023-05-20T14:55:44.259Z,101822.00
2023-05-20T14:58:12.095Z,101813.00
2023-05-20T15:00:39.732Z,101817.00
2023-05-20T15:03:06.812Z,101813.00
2023-05-20T15:05:33.921Z,101797.00
2023-05-20T15:08:00.790Z,101793.00
2023-05-20T15:10:27.628Z,101810.00
2023-05-20T15:12:54.914Z,101796.00
2023-05-20T15:15:22.002Z,101798.00
2023-05-20T15:17:48.818Z,101793.00
2023-05-20T15:20:15.669Z,101786.00
2023-05-20T15:22:45.738Z,101783.00
2023-05-20T15:25:12.656Z,101783.00
2023-05-20T15:27:42.167Z,101781.00
2023-05-20T15:30:10.318Z,101770.00
2023-05-20T15:32:37.390Z,101785.00
2023-05-20T15:35:04.640Z,101778.00
2023-05-20T15:37:31.596Z,101777.00
2023-05-20T15:39:58.349Z,101772.00
2023-05-20T15:42:25.541Z,101764.00
2023-05-20T15:44:52.457Z,101767.00
2023-05-20T15:47:19.300Z,101765.00
2023-05-20T15:49:46.153Z,101760.00
2023-05-20T15:52:14.190Z,101754.00
2023-05-20T15:54:41.198Z,101757.00
2023-05-20T15:57:08.043Z,101753.00
2023-05-20T15:59:34.847Z,101758.00
2023-05-20T16:02:01.819Z,101748.00
2023-05-20T16:04:29.402Z,101752.00
2023-05-20T16:06:56.291Z,101756.00
2023-05-20T16:09:23.120Z,101758.00
2023-05-20T16:11:49.962Z,101743.00
2023-05-20T16:14:16.844Z,101737.00
2023-05-20T16:16:43.714Z,101724.00
2023-05-20T16:19:10.606Z,101736.00
2023-05-20T16:21:37.411Z,101719.00
2023-05-20T16:24:04.761Z,101728.00
2023-05-20T16:26:31.605Z,101712.00
2023-05-20T16:28:58.469Z,101717.00
2023-05-20T16:31:26.514Z,101714.00
2023-05-20T16:33:53.424Z,101713.00
2023-05-20T16:36:21.579Z,101711.00
2023-05-20T16:38:48.412Z,101713.00
2023-05-20T16:41:16.412Z,101713.00
2023-05-20T16:43:43.299Z,101703.00
2023-05-20T16:46:10.291Z,101708.00
2023-05-20T16:48:37.190Z,101711.00
2023-05-20T16:51:04.141Z,101712.00
2023-05-20T16:53:30.959Z,101701.00
2023-05-20T16:55:57.766Z,101696.00
2023-05-20T16:58:24.532Z,101692.00
2023-05-20T17:00:51.365Z,101703.00
2023-05-20T17:03:18.212Z,101702.00
2023-05-20T17:05:45.015Z,101691.00
2023-05-20T17:08:11.956Z,101701.00
2023-05-20T17:10:39.324Z,101698.00
2023-05-20T17:13:06.218Z,101704.00
2023-05-20T17:15:36.843Z,101689.00
2023-05-20T17:18:04.269Z,101691.00
2023-05-20T17:20:31.700Z,101691.00
2023-05-20T17:22:58.707Z,101688.00
2023-05-20T17:25:25.758Z,101694.00
2023-05-20T17:27:52.540Z,101694.00
2023-05-20T17:30:19.396Z,101682.00
2023-05-20T17:32:46.266Z,101688.00
2023-05-20T17:35:13.168Z,101675.00
2023-05-20T17:37:39.975Z,101691.00
2023-05-20T17:40:07.614Z,101674.00
2023-05-20T17:42:34.457Z,101684.00
2023-05-20T17:45:01.282Z,101691.00
2023-05-20T17:47:28.133Z,101685.00
2023-05-20T17:49:55.006Z,101685.00
2023-05-20T17:52:21.778Z,101695.00
2023-05-20T17:54:48.567Z,101694.00
2023-05-20T17:57:15.516Z,101696.00
2023-05-20T17:59:45.227Z,101695.00
2023-05-20T18:02:13.062Z,101694.00
2023-05-20T18:04:39.918Z,101695.00
2023-05-20T18:07:09.331Z,101688.00
2023-05-20T18:09:36.183Z,101695.00
2023-05-20T18:12:03.020Z,101687.00
2023-05-20T18:14:29.802Z,101683.00
2023-05-20T18:16:58.004Z,101700.00
2023-05-20T18:19:25.268Z,101694.00
2023-05-20T18:21:52.222Z,101688.00
2023-05-20T18:24:20.571Z,101698.00
2023-05-20T18:26:48.032Z,101695.00
2023-05-20T18:29:14.859Z,101695.00
2023-05-20T18:31:43.468Z,101690.00
2023-05-20T18:34:10.653Z,101688.00
2023-05-20T18:36:37.752Z,101680.00
2023-05-20T18:39:04.873Z,101687.00
2023-05-20T18:41:46.137Z,101687.00
2023-05-20T18:44:16.752Z,101690.00
2023-05-20T18:46:43.722Z,101689.00
2023-05-20T18:49:11.140Z,101691.00
2023-05-20T18:51:39.452Z,101690.00
2023-05-20T18:54:06.301Z,101694.00
2023-05-20T18:56:33.380Z,101699.00
2023-05-20T18:59:00.594Z,101700.00
2023-05-20T19:01:27.478Z,101700.00
2023-05-20T19:03:54.421Z,101697.00
2023-05-20T19:06:21.946Z,101702.00
2023-05-20T19:08:49.489Z,101697.00
2023-05-20T19:11:16.349Z,101699.00
2023-05-20T19:13:43.596Z,101703.00
2023-05-20T19:16:10.681Z,101706.00
2023-05-20T19:18:37.541Z,101711.00
2023-05-20T19:21:06.362Z,101714.00
2023-05-20T19:23:33.238Z,101709.00
2023-05-20T19:26:00.019Z,101708.00
2023-05-20T19:28:26.832Z,101713.00
2023-05-20T19:30:54.110Z,101715.00
2023-05-20T19:33:21.389Z,101714.00
2023-05-20T19:35:48.523Z,101717.00
2023-05-20T19:38:15.513Z,101708.00
2023-05-20T19:40:44.803Z,101711.00
2023-05-20T19:43:11.678Z,101720.00
2023-05-20T19:45:38.575Z,101720.00
2023-05-20T19:48:06.619Z,101724.00
2023-05-20T19:50:34.161Z,101725.00
2023-05-20T19:53:03.188Z,101724.00
2023-05-20T19:55:30.137Z,101721.00
2023-05-20T19:57:57.283Z,101726.00
2023-05-20T20:00:24.266Z,101727.00
2023-05-20T20:02:51.330Z,101724.00
2023-05-20T20:05:18.335Z,101735.00
2023-05-20T20:07:45.175Z,101724.00
2023-05-20T20:10:11.960Z,101716.00
2023-05-20T20:12:38.809Z,101721.00
2023-05-20T20:15:06.685Z,101723.00
2023-05-20T20:17:33.722Z,101734.00
2023-05-20T20:20:01.171Z,101728.00
2023-05-20T20:22:28.146Z,101733.00
2023-05-20T20:24:55.048Z,101719.00
2023-05-20T20:27:23.949Z,101723.00
2023-05-20T20:29:51.261Z,101722.00
2023-05-20T20:32:18.575Z,101725.00
2023-05-20T20:34:46.018Z,101718.00
2023-05-20T20:37:14.755Z,101716.00
2023-05-20T20:39:41.808Z,101716.00
2023-05-20T20:42:08.678Z,101707.00
2023-05-20T20:44:35.455Z,101712.00
2023-05-20T20:47:04.126Z,101709.00
2023-05-20T20:49:32.123Z,101702.00
2023-05-20T20:51:59.060Z,101704.00
2023-05-20T20:54:26.394Z,101714.00
2023-05-20T20:56:56.495Z,101705.00
2023-05-20T20:59:26.290Z,101705.00
2023-05-20T21:01:53.806Z,101710.00
2023-05-20T21:04:21.129Z,101707.00
2023-05-20T21:06:47.994Z,101712.00
2023-05-20T21:09:15.203Z,101697.00
2023-05-20T21:11:42.346Z,101694.00
2023-05-20T21:14:10.214Z,101695.00
2023-05-20T21:16:37.382Z,101693.00
2023-05-20T21:19:04.845Z,101691.00
2023-05-20T21:21:31.962Z,101687.00
2023-05-20T21:23:58.836Z,101688.00
2023-05-20T21:26:26.631Z,101682.00
2023-05-20T21:28:53.535Z,101674.00
2023-05-20T21:31:20.426Z,101671.00
2023-05-20T21:33:47.927Z,101668.00
2023-05-20T21:36:14.852Z,101668.00
2023-05-20T21:38:41.695Z,101660.00
2023-05-20T21:41:08.738Z,101668.00
2023-05-20T21:43:36.997Z,101658.00
2023-05-20T21:46:04.041Z,101648.00
2023-05-20T21:48:30.925Z,101652.00
2023-05-20T21:50:57.734Z,101649.00
2023-05-20T21:53:24.545Z,101647.00
2023-05-20T21:55:51.528Z,101640.00
2023-05-20T21:58:18.290Z,101649.00
2023-05-20T22:00:45.134Z,101644.00
2023-05-20T22:03:12.990Z,101645.00
2023-05-20T22:05:40.923Z,101644.00
2023-05-20T22:08:07.874Z,101651.00
2023-05-20T22:10:36.540Z,101642.00
2023-05-20T22:13:03.604Z,101639.00
2023-05-20T22:15:31.388Z,101656.00
2023-05-20T22:17:58.684Z,101646.00
2023-05-20T22:20:25.661Z,101644.00
2023-05-20T22:22:52.515Z,101637.00
2023-05-20T22:25:19.375Z,101645.00
2023-05-20T22:27:46.301Z,101643.00
2023-05-20T22:30:13.423Z,101644.00
2023-05-20T22:32:40.821Z,101632.00
2023-05-20T22:35:09.012Z,101635.00
2023-05-20T22:37:35.885Z,101635.00
2023-05-20T22:40:04.019Z,101640.00
2023-05-20T22:42:30.765Z,101634.00
2023-05-20T22:44:57.534Z,101628.00
2023-05-20T22:47:24.384Z,101622.00
2023-05-20T22:49:51.234Z,101631.00
2023-05-20T22:52:18.572Z,101632.00
2023-05-20T22:54:45.888Z,101619.00
2023-05-20T22:57:12.682Z,101622.00
2023-05-20T22:59:40.356Z,101627.00
2023-05-20T23:02:07.870Z,101618.00
2023-05-20T23:04:34.672Z,101619.00
2023-05-20T23:07:01.482Z,101617.00
2023-05-20T23:09:28.312Z,101622.00
2023-05-20T23:11:55.067Z,101617.00
2023-05-20T23:14:21.877Z,101608.00
2023-05-20T23:16:48.727Z,101623.00
2023-05-20T23:19:16.783Z,101615.00
2023-05-20T23:21:44.007Z,101609.00
2023-05-20T23:24:11.946Z,101602.00
2023-05-20T23:26:39.578Z,101598.00
2023-05-20T23:29:06.431Z,101603.00
2023-05-20T23:31:33.730Z,101590.00
2023-05-20T23:34:01.614Z,101584.00
2023-05-20T23:36:34.448Z,101585.00
2023-05-20T23:39:02.518Z,101593.00
2023-05-20T23:41:29.569Z,101581.00
2023-05-20T23:43:57.584Z,101581.00
2023-05-20T23:46:24.510Z,101592.00
2023-05-20T23:48:51.715Z,101584.00
2023-05-20T23:51:18.900Z,101589.00
2023-05-20T23:53:45.687Z,101578.00
2023-05-20T23:56:12.499Z,101585.00
2023-05-20T23:58:39.296Z,101582.00
